sensor_id;sensor_type;location;lat;lon;timestamp;pressure;altitude;pressure_sealevel;temperature;humidity
48680;BME280;34475;51.658;5.634;2023-03-13T00:00:00;100060;;;9.5;100.0
48680;BME280;34475;51.658;5.634;2023-03-13T00:01:00;100060;;;9.5;100.0
48680;BME280;34475;51.658;5.634;2023-03-13T00:02:00;100050;;;9.5;100.0
48680;BME280;34475;51.658;5.634;2023-03-13T00:03:00;100050;;;9.5;100.0
48680;BME280;34475;51.658;5.634;2023-03-13T00:04:00;100050;;;9.5;100.0
48680;BME280;34475;51.658;5.634;2023-03-13T00:05:00;100050;;;9.5;100.0
48680;BME280;34475;51.658;5.634;2023-03-13T00:06:00;100050;;;9.4;100.0
48680;BME280;34475;51.658;5.634;2023-03-13T00:07:00;100050;;;9.4;100.0
48680;BME280;34475;51.658;5.634;2023-03-13T00:08:00;100040;;;9.4;100.0
48680;BME280;34475;51.658;5.634;2023-03-13T00:09:00;100040;;;9.4;100.0
48680;BME280;34475;51.658;5.634;2023-03-13T00:10:00;100040;;;9.4;100.0
48680;BME280;34475;51.658;5.634;2023-03-13T00:11:02;100040;;;9.4;100.0
48680;BME280;34475;51.658;5.634;2023-03-13T00:12:00;100030;;;9.4;100.0
48680;BME280;34475;51.658;5.634;2023-03-13T00:13:00;100030;;;9.4;100.0
48680;BME280;34475;51.658;5.634;2023-03-13T00:14:01;100030;;;9.4;100.0
48680;BME280;34475;51.658;5.634;2023-03-13T00:15:00;100030;;;9.4;100.0
48680;BME280;34475;51.658;5.634;2023-03-13T00:16:00;100020;;;9.4;100.0
48680;BME280;34475;51.658;5.634;2023-03-13T00:17:00;100020;;;9.4;100.0
48680;BME280;34475;51.658;5.634;2023-03-13T00:18:00;100020;;;9.4;100.0
48680;BME280;34475;51.658;5.634;2023-03-13T00:19:00;100020;;;9.4;100.0
48680;BME280;34475;51.658;5.634;2023-03-13T00:20:00;100010;;;9.4;100.0
48680;BME280;34475;51.658;5.634;2023-03-13T00:21:00;100010;;;9.4;100.0
48680;BME280;34475;51.658;5.634;2023-03-13T00:22:00;100010;;;9.4;100.0
48680;BME280;34475;51.658;5.634;2023-03-13T00:23:00;100010;;;9.4;100.0
48680;BME280;34475;51.658;5.634;2023-03-13T00:24:00;100010;;;9.4;100.0
48680;BME280;34475;51.658;5.634;2023-03-13T00:25:00;100010;;;9.4;100.0
48680;BME280;34475;51.658;5.634;2023-03-13T00:26:01;100010;;;9.4;100.0
48680;BME280;34475;51.658;5.634;2023-03-13T00:27:00;100010;;;9.4;100.0
48680;BME280;34475;51.658;5.634;2023-03-13T00:28:00;100010;;;9.4;100.0
48680;BME280;34475;51.658;5.634;2023-03-13T00:29:00;100010;;;9.4;100.0
48680;BME280;34475;51.658;5.634;2023-03-13T00:30:00;100000;;;9.3;100.0
48680;BME280;34475;51.658;5.634;2023-03-13T00:32:00;99990;;;9.3;100.0
48680;BME280;34475;51.658;5.634;2023-03-13T00:33:00;99990;;;9.3;100.0
48680;BME280;34475;51.658;5.634;2023-03-13T00:34:01;99990;;;9.3;100.0
48680;BME280;34475;51.658;5.634;2023-03-13T00:35:00;99990;;;9.3;100.0
48680;BME280;34475;51.658;5.634;2023-03-13T00:36:00;99990;;;9.3;100.0
48680;BME280;34475;51.658;5.634;2023-03-13T00:37:00;99990;;;9.3;100.0
48680;BME280;34475;51.658;5.634;2023-03-13T00:38:00;99990;;;9.3;100.0
48680;BME280;34475;51.658;5.634;2023-03-13T00:39:00;99990;;;9.3;100.0
48680;BME280;34475;51.658;5.634;2023-03-13T00:40:00;99980;;;9.3;100.0
48680;BME280;34475;51.658;5.634;2023-03-13T00:41:00;99980;;;9.3;100.0
48680;BME280;34475;51.658;5.634;2023-03-13T00:42:00;99980;;;9.3;100.0
48680;BME280;34475;51.658;5.634;2023-03-13T00:43:00;99980;;;9.3;100.0
48680;BME280;34475;51.658;5.634;2023-03-13T00:44:00;99970;;;9.2;100.0
48680;BME280;34475;51.658;5.634;2023-03-13T00:45:00;99970;;;9.2;100.0
48680;BME280;34475;51.658;5.634;2023-03-13T00:46:00;99970;;;9.2;100.0
48680;BME280;34475;51.658;5.634;2023-03-13T00:47:00;99970;;;9.2;100.0
48680;BME280;34475;51.658;5.634;2023-03-13T00:48:00;99970;;;9.3;100.0
48680;BME280;34475;51.658;5.634;2023-03-13T00:49:00;99970;;;9.3;100.0
48680;BME280;34475;51.658;5.634;2023-03-13T00:50:00;99960;;;9.3;100.0
48680;BME280;34475;51.658;5.634;2023-03-13T00:51:00;99960;;;9.3;100.0
48680;BME280;34475;51.658;5.634;2023-03-13T00:52:00;99950;;;9.2;100.0
48680;BME280;34475;51.658;5.634;2023-03-13T00:53:00;99950;;;9.2;100.0
48680;BME280;34475;51.658;5.634;2023-03-13T00:54:00;99950;;;9.3;100.0
48680;BME280;34475;51.658;5.634;2023-03-13T00:55:00;99950;;;9.3;100.0
48680;BME280;34475;51.658;5.634;2023-03-13T00:56:01;99950;;;9.3;100.0
48680;BME280;34475;51.658;5.634;2023-03-13T00:57:00;99950;;;9.3;100.0
48680;BME280;34475;51.658;5.634;2023-03-13T00:58:00;99940;;;9.3;100.0
48680;BME280;34475;51.658;5.634;2023-03-13T00:59:00;99940;;;9.3;100.0
48680;BME280;34475;51.658;5.634;2023-03-13T01:00:00;99940;;;9.3;100.0
48680;BME280;34475;51.658;5.634;2023-03-13T01:01:05;99940;;;9.3;100.0
48680;BME280;34475;51.658;5.634;2023-03-13T01:02:00;99930;;;9.3;100.0
48680;BME280;34475;51.658;5.634;2023-03-13T01:03:00;99930;;;9.3;100.0
48680;BME280;34475;51.658;5.634;2023-03-13T01:04:03;99930;;;9.2;100.0
48680;BME280;34475;51.658;5.634;2023-03-13T01:05:00;99930;;;9.2;100.0
48680;BME280;34475;51.658;5.634;2023-03-13T01:06:00;99930;;;9.2;100.0
48680;BME280;34475;51.658;5.634;2023-03-13T01:07:00;99930;;;9.2;100.0
48680;BME280;34475;51.658;5.634;2023-03-13T01:08:00;99920;;;9.3;100.0
48680;BME280;34475;51.658;5.634;2023-03-13T01:09:00;99920;;;9.3;100.0
48680;BME280;34475;51.658;5.634;2023-03-13T01:10:00;99920;;;9.2;100.0
48680;BME280;34475;51.658;5.634;2023-03-13T01:11:00;99920;;;9.2;100.0
48680;BME280;34475;51.658;5.634;2023-03-13T01:12:00;99910;;;9.2;100.0
48680;BME280;34475;51.658;5.634;2023-03-13T01:13:00;99910;;;9.2;100.0
48680;BME280;34475;51.658;5.634;2023-03-13T01:14:01;99910;;;9.3;100.0
48680;BME280;34475;51.658;5.634;2023-03-13T01:15:00;99910;;;9.3;100.0
48680;BME280;34475;51.658;5.634;2023-03-13T01:16:02;99900;;;9.3;100.0
48680;BME280;34475;51.658;5.634;2023-03-13T01:17:00;99900;;;9.3;100.0
48680;BME280;34475;51.658;5.634;2023-03-13T01:18:00;99900;;;9.3;100.0
48680;BME280;34475;51.658;5.634;2023-03-13T01:19:01;99900;;;9.3;100.0
48680;BME280;34475;51.658;5.634;2023-03-13T01:20:00;99880;;;9.4;100.0
48680;BME280;34475;51.658;5.634;2023-03-13T01:21:00;99880;;;9.4;100.0
48680;BME280;34475;51.658;5.634;2023-03-13T01:22:00;99890;;;9.3;100.0
48680;BME280;34475;51.658;5.634;2023-03-13T01:23:00;99890;;;9.3;100.0
48680;BME280;34475;51.658;5.634;2023-03-13T01:24:00;99870;;;9.3;100.0
48680;BME280;34475;51.658;5.634;2023-03-13T01:25:00;99870;;;9.3;100.0
48680;BME280;34475;51.658;5.634;2023-03-13T01:26:00;99880;;;9.3;100.0
48680;BME280;34475;51.658;5.634;2023-03-13T01:27:00;99880;;;9.3;100.0
48680;BME280;34475;51.658;5.634;2023-03-13T01:28:00;99870;;;9.3;100.0
48680;BME280;34475;51.658;5.634;2023-03-13T01:29:00;99870;;;9.3;100.0
48680;BME280;34475;51.658;5.634;2023-03-13T01:30:00;99870;;;9.3;100.0
48680;BME280;34475;51.658;5.634;2023-03-13T01:31:00;99870;;;9.3;100.0
48680;BME280;34475;51.658;5.634;2023-03-13T01:32:00;99860;;;9.4;100.0
48680;BME280;34475;51.658;5.634;2023-03-13T01:33:00;99860;;;9.4;100.0
48680;BME280;34475;51.658;5.634;2023-03-13T01:34:01;99850;;;9.4;100.0
48680;BME280;34475;51.658;5.634;2023-03-13T01:35:00;99850;;;9.4;100.0
48680;BME280;34475;51.658;5.634;2023-03-13T01:36:00;99850;;;9.4;100.0
48680;BME280;34475;51.658;5.634;2023-03-13T01:37:00;99850;;;9.4;100.0
48680;BME280;34475;51.658;5.634;2023-03-13T01:38:00;99850;;;9.5;100.0
48680;BME280;34475;51.658;5.634;2023-03-13T01:39:00;99850;;;9.5;100.0
48680;BME280;34475;51.658;5.634;2023-03-13T01:40:00;99840;;;9.4;100.0
48680;BME280;34475;51.658;5.634;2023-03-13T01:41:00;99840;;;9.4;100.0
48680;BME280;34475;51.658;5.634;2023-03-13T01:42:00;99840;;;9.4;100.0
48680;BME280;34475;51.658;5.634;2023-03-13T01:43:03;99840;;;9.4;100.0
48680;BME280;34475;51.658;5.634;2023-03-13T01:44:00;99840;;;9.5;100.0
48680;BME280;34475;51.658;5.634;2023-03-13T01:45:00;99840;;;9.5;100.0
48680;BME280;34475;51.658;5.634;2023-03-13T01:47:00;99830;;;9.5;100.0
48680;BME280;34475;51.658;5.634;2023-03-13T01:48:00;99830;;;9.6;100.0
48680;BME280;34475;51.658;5.634;2023-03-13T01:50:00;99830;;;9.5;100.0
48680;BME280;34475;51.658;5.634;2023-03-13T01:51:00;99830;;;9.5;100.0
48680;BME280;34475;51.658;5.634;2023-03-13T01:52:04;99820;;;9.6;100.0
48680;BME280;34475;51.658;5.634;2023-03-13T01:53:00;99820;;;9.6;100.0
48680;BME280;34475;51.658;5.634;2023-03-13T01:55:02;99810;;;9.6;100.0
48680;BME280;34475;51.658;5.634;2023-03-13T01:56:00;99790;;;9.6;100.0
48680;BME280;34475;51.658;5.634;2023-03-13T01:57:01;99790;;;9.6;100.0
48680;BME280;34475;51.658;5.634;2023-03-13T01:58:00;99800;;;9.6;100.0
48680;BME280;34475;51.658;5.634;2023-03-13T01:59:00;99800;;;9.6;100.0
48680;BME280;34475;51.658;5.634;2023-03-13T02:00:03;99790;;;9.6;100.0
48680;BME280;34475;51.658;5.634;2023-03-13T02:01:00;99790;;;9.6;100.0
48680;BME280;34475;51.658;5.634;2023-03-13T02:02:00;99780;;;9.6;100.0
48680;BME280;34475;51.658;5.634;2023-03-13T02:03:02;99780;;;9.6;100.0
48680;BME280;34475;51.658;5.634;2023-03-13T02:04:00;99790;;;9.7;100.0
48680;BME280;34475;51.658;5.634;2023-03-13T02:05:00;99790;;;9.7;100.0
48680;BME280;34475;51.658;5.634;2023-03-13T02:06:00;99790;;;9.7;100.0
48680;BME280;34475;51.658;5.634;2023-03-13T02:07:01;99790;;;9.7;100.0
48680;BME280;34475;51.658;5.634;2023-03-13T02:09:02;99780;;;9.8;100.0
48680;BME280;34475;51.658;5.634;2023-03-13T02:10:00;99770;;;9.8;100.0
48680;BME280;34475;51.658;5.634;2023-03-13T02:11:03;99770;;;9.8;100.0
48680;BME280;34475;51.658;5.634;2023-03-13T02:12:02;99770;;;9.7;100.0
48680;BME280;34475;51.658;5.634;2023-03-13T02:13:00;99770;;;9.7;100.0
48680;BME280;34475;51.658;5.634;2023-03-13T02:14:00;99760;;;9.8;100.0
48680;BME280;34475;51.658;5.634;2023-03-13T02:15:02;99760;;;9.8;100.0
48680;BME280;34475;51.658;5.634;2023-03-13T02:16:00;99750;;;9.8;100.0
48680;BME280;34475;51.658;5.634;2023-03-13T02:17:00;99750;;;9.8;100.0
48680;BME280;34475;51.658;5.634;2023-03-13T02:18:00;99740;;;9.9;100.0
48680;BME280;34475;51.658;5.634;2023-03-13T02:19:01;99740;;;9.9;100.0
48680;BME280;34475;51.658;5.634;2023-03-13T02:20:00;99740;;;9.8;100.0
48680;BME280;34475;51.658;5.634;2023-03-13T02:21:04;99740;;;9.8;100.0
48680;BME280;34475;51.658;5.634;2023-03-13T02:26:00;99740;;;9.9;100.0
48680;BME280;34475;51.658;5.634;2023-03-13T02:27:00;99740;;;9.9;100.0
48680;BME280;34475;51.658;5.634;2023-03-13T02:28:00;99730;;;10.0;100.0
48680;BME280;34475;51.658;5.634;2023-03-13T02:29:00;99730;;;10.0;100.0
48680;BME280;34475;51.658;5.634;2023-03-13T02:30:00;99710;;;9.9;100.0
48680;BME280;34475;51.658;5.634;2023-03-13T02:31:00;99710;;;9.9;100.0
48680;BME280;34475;51.658;5.634;2023-03-13T02:32:00;99700;;;10.1;100.0
48680;BME280;34475;51.658;5.634;2023-03-13T02:33:00;99700;;;10.1;100.0
48680;BME280;34475;51.658;5.634;2023-03-13T02:34:00;99690;;;10.1;100.0
48680;BME280;34475;51.658;5.634;2023-03-13T02:35:03;99690;;;10.1;100.0
48680;BME280;34475;51.658;5.634;2023-03-13T02:36:00;99690;;;10.0;100.0
48680;BME280;34475;51.658;5.634;2023-03-13T02:37:00;99690;;;10.0;100.0
48680;BME280;34475;51.658;5.634;2023-03-13T02:38:01;99690;;;10.0;100.0
48680;BME280;34475;51.658;5.634;2023-03-13T02:39:00;99690;;;10.0;100.0
48680;BME280;34475;51.658;5.634;2023-03-13T02:40:01;99690;;;10.1;100.0
48680;BME280;34475;51.658;5.634;2023-03-13T02:41:00;99690;;;10.1;100.0
48680;BME280;34475;51.658;5.634;2023-03-13T02:42:00;99690;;;10.1;100.0
48680;BME280;34475;51.658;5.634;2023-03-13T02:43:00;99690;;;10.1;100.0
48680;BME280;34475;51.658;5.634;2023-03-13T02:44:00;99700;;;10.2;100.0
48680;BME280;34475;51.658;5.634;2023-03-13T02:45:00;99700;;;10.2;100.0
48680;BME280;34475;51.658;5.634;2023-03-13T02:46:16;99700;;;10.2;100.0
48680;BME280;34475;51.658;5.634;2023-03-13T02:47:00;99700;;;10.2;100.0
48680;BME280;34475;51.658;5.634;2023-03-13T02:48:00;99690;;;10.1;100.0
48680;BME280;34475;51.658;5.634;2023-03-13T02:49:09;99690;;;10.1;100.0
48680;BME280;34475;51.658;5.634;2023-03-13T02:50:00;99700;;;10.2;100.0
48680;BME280;34475;51.658;5.634;2023-03-13T02:51:01;99700;;;10.2;100.0
48680;BME280;34475;51.658;5.634;2023-03-13T02:52:04;99690;;;10.2;100.0
48680;BME280;34475;51.658;5.634;2023-03-13T02:53:01;99690;;;10.2;100.0
48680;BME280;34475;51.658;5.634;2023-03-13T02:54:03;99690;;;10.2;100.0
48680;BME280;34475;51.658;5.634;2023-03-13T02:55:02;99690;;;10.2;100.0
48680;BME280;34475;51.658;5.634;2023-03-13T02:56:00;99690;;;10.2;100.0
48680;BME280;34475;51.658;5.634;2023-03-13T02:57:01;99690;;;10.2;100.0
48680;BME280;34475;51.658;5.634;2023-03-13T02:58:00;99690;;;10.2;100.0
48680;BME280;34475;51.658;5.634;2023-03-13T02:59:00;99690;;;10.2;100.0
48680;BME280;34475;51.658;5.634;2023-03-13T03:00:00;99690;;;10.2;100.0
48680;BME280;34475;51.658;5.634;2023-03-13T03:01:00;99690;;;10.2;100.0
48680;BME280;34475;51.658;5.634;2023-03-13T03:02:00;99680;;;10.2;100.0
48680;BME280;34475;51.658;5.634;2023-03-13T03:03:00;99680;;;10.2;100.0
48680;BME280;34475;51.658;5.634;2023-03-13T03:04:00;99690;;;10.3;100.0
48680;BME280;34475;51.658;5.634;2023-03-13T03:05:00;99690;;;10.3;100.0
48680;BME280;34475;51.658;5.634;2023-03-13T03:06:00;99690;;;10.3;100.0
48680;BME280;34475;51.658;5.634;2023-03-13T03:07:00;99690;;;10.3;100.0
48680;BME280;34475;51.658;5.634;2023-03-13T03:08:00;99700;;;10.3;100.0
48680;BME280;34475;51.658;5.634;2023-03-13T03:09:00;99700;;;10.3;100.0
48680;BME280;34475;51.658;5.634;2023-03-13T03:10:00;99690;;;10.4;100.0
48680;BME280;34475;51.658;5.634;2023-03-13T03:11:00;99690;;;10.4;100.0
48680;BME280;34475;51.658;5.634;2023-03-13T03:12:00;99700;;;10.3;100.0
48680;BME280;34475;51.658;5.634;2023-03-13T03:13:00;99700;;;10.3;100.0
48680;BME280;34475;51.658;5.634;2023-03-13T03:14:00;99690;;;10.4;100.0
48680;BME280;34475;51.658;5.634;2023-03-13T03:15:00;99690;;;10.4;100.0
48680;BME280;34475;51.658;5.634;2023-03-13T03:16:04;99690;;;10.4;100.0
48680;BME280;34475;51.658;5.634;2023-03-13T03:17:00;99690;;;10.4;100.0
48680;BME280;34475;51.658;5.634;2023-03-13T03:18:00;99690;;;10.4;100.0
48680;BME280;34475;51.658;5.634;2023-03-13T03:19:00;99690;;;10.4;100.0
48680;BME280;34475;51.658;5.634;2023-03-13T03:20:00;99680;;;10.4;100.0
48680;BME280;34475;51.658;5.634;2023-03-13T03:21:00;99680;;;10.4;100.0
48680;BME280;34475;51.658;5.634;2023-03-13T03:22:00;99690;;;10.4;100.0
48680;BME280;34475;51.658;5.634;2023-03-13T03:23:00;99690;;;10.4;100.0
48680;BME280;34475;51.658;5.634;2023-03-13T03:24:00;99680;;;10.5;100.0
48680;BME280;34475;51.658;5.634;2023-03-13T03:25:00;99680;;;10.5;100.0
48680;BME280;34475;51.658;5.634;2023-03-13T03:26:00;99690;;;10.6;100.0
48680;BME280;34475;51.658;5.634;2023-03-13T03:27:00;99690;;;10.6;100.0
48680;BME280;34475;51.658;5.634;2023-03-13T03:28:00;99680;;;10.6;100.0
48680;BME280;34475;51.658;5.634;2023-03-13T03:29:00;99680;;;10.6;100.0
48680;BME280;34475;51.658;5.634;2023-03-13T03:30:00;99690;;;10.5;100.0
48680;BME280;34475;51.658;5.634;2023-03-13T03:31:05;99690;;;10.5;100.0
48680;BME280;34475;51.658;5.634;2023-03-13T03:32:00;99680;;;10.6;100.0
48680;BME280;34475;51.658;5.634;2023-03-13T03:33:01;99680;;;10.6;100.0
48680;BME280;34475;51.658;5.634;2023-03-13T03:34:00;99680;;;10.6;100.0
48680;BME280;34475;51.658;5.634;2023-03-13T03:35:00;99680;;;10.6;100.0
48680;BME280;34475;51.658;5.634;2023-03-13T03:36:00;99670;;;10.6;100.0
48680;BME280;34475;51.658;5.634;2023-03-13T03:37:00;99670;;;10.6;100.0
48680;BME280;34475;51.658;5.634;2023-03-13T03:38:00;99670;;;10.6;100.0
48680;BME280;34475;51.658;5.634;2023-03-13T03:39:00;99670;;;10.6;100.0
48680;BME280;34475;51.658;5.634;2023-03-13T03:40:00;99670;;;10.6;100.0
48680;BME280;34475;51.658;5.634;2023-03-13T03:41:00;99670;;;10.6;100.0
48680;BME280;34475;51.658;5.634;2023-03-13T03:42:00;99670;;;10.6;100.0
48680;BME280;34475;51.658;5.634;2023-03-13T03:43:00;99670;;;10.6;100.0
48680;BME280;34475;51.658;5.634;2023-03-13T03:44:00;99670;;;10.6;100.0
48680;BME280;34475;51.658;5.634;2023-03-13T03:45:00;99670;;;10.6;100.0
48680;BME280;34475;51.658;5.634;2023-03-13T03:46:00;99670;;;10.7;100.0
48680;BME280;34475;51.658;5.634;2023-03-13T03:47:00;99670;;;10.7;100.0
48680;BME280;34475;51.658;5.634;2023-03-13T03:48:00;99660;;;10.7;100.0
48680;BME280;34475;51.658;5.634;2023-03-13T03:49:00;99660;;;10.7;100.0
48680;BME280;34475;51.658;5.634;2023-03-13T03:50:00;99670;;;10.8;100.0
48680;BME280;34475;51.658;5.634;2023-03-13T03:51:00;99670;;;10.8;100.0
48680;BME280;34475;51.658;5.634;2023-03-13T03:52:00;99680;;;10.8;100.0
48680;BME280;34475;51.658;5.634;2023-03-13T03:53:00;99680;;;10.8;100.0
48680;BME280;34475;51.658;5.634;2023-03-13T03:54:00;99670;;;10.7;100.0
48680;BME280;34475;51.658;5.634;2023-03-13T03:55:00;99670;;;10.7;100.0
48680;BME280;34475;51.658;5.634;2023-03-13T03:56:00;99670;;;10.8;100.0
48680;BME280;34475;51.658;5.634;2023-03-13T03:57:00;99670;;;10.8;100.0
48680;BME280;34475;51.658;5.634;2023-03-13T03:58:00;99670;;;10.7;100.0
48680;BME280;34475;51.658;5.634;2023-03-13T03:59:00;99670;;;10.7;100.0
48680;BME280;34475;51.658;5.634;2023-03-13T04:00:00;99670;;;10.8;100.0
48680;BME280;34475;51.658;5.634;2023-03-13T04:01:00;99670;;;10.8;100.0
48680;BME280;34475;51.658;5.634;2023-03-13T04:02:00;99670;;;10.9;100.0
48680;BME280;34475;51.658;5.634;2023-03-13T04:03:00;99670;;;10.9;100.0
48680;BME280;34475;51.658;5.634;2023-03-13T04:04:00;99670;;;10.9;100.0
48680;BME280;34475;51.658;5.634;2023-03-13T04:05:00;99670;;;10.9;100.0
48680;BME280;34475;51.658;5.634;2023-03-13T04:06:00;99660;;;10.9;100.0
48680;BME280;34475;51.658;5.634;2023-03-13T04:07:00;99660;;;10.9;100.0
48680;BME280;34475;51.658;5.634;2023-03-13T04:08:00;99660;;;10.9;100.0
48680;BME280;34475;51.658;5.634;2023-03-13T04:09:00;99660;;;10.9;100.0
48680;BME280;34475;51.658;5.634;2023-03-13T04:10:00;99660;;;10.8;100.0
48680;BME280;34475;51.658;5.634;2023-03-13T04:11:00;99660;;;10.8;100.0
48680;BME280;34475;51.658;5.634;2023-03-13T04:12:00;99660;;;10.9;100.0
48680;BME280;34475;51.658;5.634;2023-03-13T04:13:00;99660;;;10.9;100.0
48680;BME280;34475;51.658;5.634;2023-03-13T04:14:00;99650;;;10.9;100.0
48680;BME280;34475;51.658;5.634;2023-03-13T04:15:00;99650;;;10.9;100.0
48680;BME280;34475;51.658;5.634;2023-03-13T04:16:05;99650;;;10.9;100.0
48680;BME280;34475;51.658;5.634;2023-03-13T04:17:00;99650;;;10.9;100.0
48680;BME280;34475;51.658;5.634;2023-03-13T04:18:00;99650;;;10.9;100.0
48680;BME280;34475;51.658;5.634;2023-03-13T04:19:00;99650;;;10.9;100.0
48680;BME280;34475;51.658;5.634;2023-03-13T04:20:00;99650;;;10.9;100.0
48680;BME280;34475;51.658;5.634;2023-03-13T04:21:00;99650;;;10.9;100.0
48680;BME280;34475;51.658;5.634;2023-03-13T04:22:00;99650;;;11.0;100.0
48680;BME280;34475;51.658;5.634;2023-03-13T04:23:00;99650;;;11.0;100.0
48680;BME280;34475;51.658;5.634;2023-03-13T04:24:00;99650;;;10.9;100.0
48680;BME280;34475;51.658;5.634;2023-03-13T04:25:00;99650;;;10.9;100.0
48680;BME280;34475;51.658;5.634;2023-03-13T04:26:00;99650;;;11.0;100.0
48680;BME280;34475;51.658;5.634;2023-03-13T04:27:00;99650;;;11.0;100.0
48680;BME280;34475;51.658;5.634;2023-03-13T04:28:00;99640;;;10.9;100.0
48680;BME280;34475;51.658;5.634;2023-03-13T04:29:00;99640;;;10.9;100.0
48680;BME280;34475;51.658;5.634;2023-03-13T04:30:00;99640;;;11.0;100.0
48680;BME280;34475;51.658;5.634;2023-03-13T04:31:00;99640;;;11.0;100.0
48680;BME280;34475;51.658;5.634;2023-03-13T04:32:00;99630;;;11.1;100.0
48680;BME280;34475;51.658;5.634;2023-03-13T04:33:00;99630;;;11.1;100.0
48680;BME280;34475;51.658;5.634;2023-03-13T04:34:00;99630;;;11.1;100.0
48680;BME280;34475;51.658;5.634;2023-03-13T04:35:00;99630;;;11.1;100.0
48680;BME280;34475;51.658;5.634;2023-03-13T04:36:00;99620;;;11.1;100.0
48680;BME280;34475;51.658;5.634;2023-03-13T04:37:00;99620;;;11.1;100.0
48680;BME280;34475;51.658;5.634;2023-03-13T04:38:00;99610;;;11.1;100.0
48680;BME280;34475;51.658;5.634;2023-03-13T04:39:00;99610;;;11.1;100.0
48680;BME280;34475;51.658;5.634;2023-03-13T04:40:00;99610;;;11.1;100.0
48680;BME280;34475;51.658;5.634;2023-03-13T04:41:00;99610;;;11.1;100.0
48680;BME280;34475;51.658;5.634;2023-03-13T04:42:00;99610;;;11.1;100.0
48680;BME280;34475;51.658;5.634;2023-03-13T04:43:00;99610;;;11.1;100.0
48680;BME280;34475;51.658;5.634;2023-03-13T04:44:00;99600;;;11.2;100.0
48680;BME280;34475;51.658;5.634;2023-03-13T04:45:00;99600;;;11.2;100.0
48680;BME280;34475;51.658;5.634;2023-03-13T04:46:00;99600;;;11.2;100.0
48680;BME280;34475;51.658;5.634;2023-03-13T04:47:00;99600;;;11.2;100.0
48680;BME280;34475;51.658;5.634;2023-03-13T04:48:00;99600;;;11.2;100.0
48680;BME280;34475;51.658;5.634;2023-03-13T04:49:00;99600;;;11.2;100.0
48680;BME280;34475;51.658;5.634;2023-03-13T04:50:00;99600;;;11.2;100.0
48680;BME280;34475;51.658;5.634;2023-03-13T04:51:00;99600;;;11.2;100.0
48680;BME280;34475;51.658;5.634;2023-03-13T04:52:00;99590;;;11.3;100.0
48680;BME280;34475;51.658;5.634;2023-03-13T04:53:00;99590;;;11.3;100.0
48680;BME280;34475;51.658;5.634;2023-03-13T04:54:00;99590;;;11.3;100.0
48680;BME280;34475;51.658;5.634;2023-03-13T04:55:00;99590;;;11.3;100.0
48680;BME280;34475;51.658;5.634;2023-03-13T04:56:00;99580;;;11.3;100.0
48680;BME280;34475;51.658;5.634;2023-03-13T04:57:00;99580;;;11.3;100.0
48680;BME280;34475;51.658;5.634;2023-03-13T04:58:00;99580;;;11.3;100.0
48680;BME280;34475;51.658;5.634;2023-03-13T04:59:00;99580;;;11.3;100.0
48680;BME280;34475;51.658;5.634;2023-03-13T05:00:00;99580;;;11.4;100.0
48680;BME280;34475;51.658;5.634;2023-03-13T05:01:00;99580;;;11.4;100.0
48680;BME280;34475;51.658;5.634;2023-03-13T05:02:00;99580;;;11.4;100.0
48680;BME280;34475;51.658;5.634;2023-03-13T05:03:00;99580;;;11.4;100.0
48680;BME280;34475;51.658;5.634;2023-03-13T05:04:00;99580;;;11.4;100.0
48680;BME280;34475;51.658;5.634;2023-03-13T05:05:00;99580;;;11.4;100.0
48680;BME280;34475;51.658;5.634;2023-03-13T05:06:00;99590;;;11.4;100.0
48680;BME280;34475;51.658;5.634;2023-03-13T05:07:00;99590;;;11.4;100.0
48680;BME280;34475;51.658;5.634;2023-03-13T05:08:00;99580;;;11.4;100.0
48680;BME280;34475;51.658;5.634;2023-03-13T05:09:00;99580;;;11.4;100.0
48680;BME280;34475;51.658;5.634;2023-03-13T05:10:00;99580;;;11.4;100.0
48680;BME280;34475;51.658;5.634;2023-03-13T05:11:00;99580;;;11.4;100.0
48680;BME280;34475;51.658;5.634;2023-03-13T05:12:00;99570;;;11.4;100.0
48680;BME280;34475;51.658;5.634;2023-03-13T05:13:00;99570;;;11.4;100.0
48680;BME280;34475;51.658;5.634;2023-03-13T05:14:00;99570;;;11.3;100.0
48680;BME280;34475;51.658;5.634;2023-03-13T05:15:00;99570;;;11.3;100.0
48680;BME280;34475;51.658;5.634;2023-03-13T05:16:00;99570;;;11.4;100.0
48680;BME280;34475;51.658;5.634;2023-03-13T05:17:00;99570;;;11.4;100.0
48680;BME280;34475;51.658;5.634;2023-03-13T05:18:00;99560;;;11.5;100.0
48680;BME280;34475;51.658;5.634;2023-03-13T05:19:00;99560;;;11.5;100.0
48680;BME280;34475;51.658;5.634;2023-03-13T05:20:00;99560;;;11.4;100.0
48680;BME280;34475;51.658;5.634;2023-03-13T05:21:00;99560;;;11.4;100.0
48680;BME280;34475;51.658;5.634;2023-03-13T05:22:00;99570;;;11.4;100.0
48680;BME280;34475;51.658;5.634;2023-03-13T05:23:00;99570;;;11.4;100.0
48680;BME280;34475;51.658;5.634;2023-03-13T05:24:00;99550;;;11.4;100.0
48680;BME280;34475;51.658;5.634;2023-03-13T05:25:00;99550;;;11.4;100.0
48680;BME280;34475;51.658;5.634;2023-03-13T05:26:00;99560;;;11.5;100.0
48680;BME280;34475;51.658;5.634;2023-03-13T05:27:00;99560;;;11.5;100.0
48680;BME280;34475;51.658;5.634;2023-03-13T05:28:00;99560;;;11.5;100.0
48680;BME280;34475;51.658;5.634;2023-03-13T05:29:00;99560;;;11.5;100.0
48680;BME280;34475;51.658;5.634;2023-03-13T05:30:00;99560;;;11.5;100.0
48680;BME280;34475;51.658;5.634;2023-03-13T05:31:00;99560;;;11.5;100.0
48680;BME280;34475;51.658;5.634;2023-03-13T05:32:00;99560;;;11.6;100.0
48680;BME280;34475;51.658;5.634;2023-03-13T05:33:00;99560;;;11.6;100.0
48680;BME280;34475;51.658;5.634;2023-03-13T05:34:00;99550;;;11.5;100.0
48680;BME280;34475;51.658;5.634;2023-03-13T05:35:00;99550;;;11.5;100.0
48680;BME280;34475;51.658;5.634;2023-03-13T05:36:00;99550;;;11.4;100.0
48680;BME280;34475;51.658;5.634;2023-03-13T05:37:00;99550;;;11.4;100.0
48680;BME280;34475;51.658;5.634;2023-03-13T05:38:00;99550;;;11.5;100.0
48680;BME280;34475;51.658;5.634;2023-03-13T05:39:00;99550;;;11.5;100.0
48680;BME280;34475;51.658;5.634;2023-03-13T05:40:00;99550;;;11.5;100.0
48680;BME280;34475;51.658;5.634;2023-03-13T05:41:00;99550;;;11.5;100.0
48680;BME280;34475;51.658;5.634;2023-03-13T05:42:00;99550;;;11.6;100.0
48680;BME280;34475;51.658;5.634;2023-03-13T05:43:00;99550;;;11.6;100.0
48680;BME280;34475;51.658;5.634;2023-03-13T05:44:00;99560;;;11.5;100.0
48680;BME280;34475;51.658;5.634;2023-03-13T05:45:00;99560;;;11.5;100.0
48680;BME280;34475;51.658;5.634;2023-03-13T05:46:00;99560;;;11.6;100.0